sensor_id;sensor_type;location;lat;lon;timestamp;P1;durP1;ratioP1;P2;durP2;ratioP2
17696;SDS011;8967;47.984;7.842;2023-10-19T00:00:54;9.60;;;5.72;;
17696;SDS011;8967;47.984;7.842;2023-10-19T00:03:23;8.45;;;4.85;;
17696;SDS011;8967;47.984;7.842;2023-10-19T00:05:51;6.28;;;3.80;;
17696;SDS011;8967;47.984;7.842;2023-10-19T00:08:18;13.88;;;8.25;;
17696;SDS011;8967;47.984;7.842;2023-10-19T00:10:49;13.10;;;7.68;;
17696;SDS011;8967;47.984;7.842;2023-10-19T00:13:27;12.18;;;8.23;;
17696;SDS011;8967;47.984;7.842;2023-10-19T00:15:55;10.05;;;7.70;;
17696;SDS011;8967;47.984;7.842;2023-10-19T00:18:27;11.88;;;7.22;;
17696;SDS011;8967;47.984;7.842;2023-10-19T00:20:59;11.98;;;8.85;;
17696;SDS011;8967;47.984;7.842;2023-10-19T00:23:36;13.25;;;9.93;;
17696;SDS011;8967;47.984;7.842;2023-10-19T00:26:05;12.68;;;10.10;;
17696;SDS011;8967;47.984;7.842;2023-10-19T00:28:42;13.70;;;9.30;;
17696;SDS011;8967;47.984;7.842;2023-10-19T00:31:17;14.93;;;10.27;;
17696;SDS011;8967;47.984;7.842;2023-10-19T00:33:47;16.23;;;9.95;;
17696;SDS011;8967;47.984;7.842;2023-10-19T00:36:18;16.98;;;10.48;;
17696;SDS011;8967;47.984;7.842;2023-10-19T00:38:47;14.07;;;10.13;;
17696;SDS011;8967;47.984;7.842;2023-10-19T00:41:18;14.57;;;9.70;;
17696;SDS011;8967;47.984;7.842;2023-10-19T00:43:54;13.32;;;10.48;;
17696;SDS011;8967;47.984;7.842;2023-10-19T00:46:30;18.85;;;11.20;;
17696;SDS011;8967;47.984;7.842;2023-10-19T00:49:03;15.50;;;10.80;;
17696;SDS011;8967;47.984;7.842;2023-10-19T00:51:37;10.52;;;8.35;;
17696;SDS011;8967;47.984;7.842;2023-10-19T00:54:11;13.65;;;9.75;;
17696;SDS011;8967;47.984;7.842;2023-10-19T00:56:41;21.83;;;10.80;;
17696;SDS011;8967;47.984;7.842;2023-10-19T00:59:13;14.30;;;9.80;;
17696;SDS011;8967;47.984;7.842;2023-10-19T01:01:51;12.27;;;7.47;;
17696;SDS011;8967;47.984;7.842;2023-10-19T01:04:25;14.40;;;9.00;;
17696;SDS011;8967;47.984;7.842;2023-10-19T01:06:58;11.85;;;7.55;;
17696;SDS011;8967;47.984;7.842;2023-10-19T01:09:34;17.13;;;11.02;;
17696;SDS011;8967;47.984;7.842;2023-10-19T01:12:02;13.15;;;9.30;;
17696;SDS011;8967;47.984;7.842;2023-10-19T01:14:59;16.88;;;9.82;;
17696;SDS011;8967;47.984;7.842;2023-10-19T01:17:33;11.88;;;8.82;;
17696;SDS011;8967;47.984;7.842;2023-10-19T01:20:05;13.52;;;9.93;;
17696;SDS011;8967;47.984;7.842;2023-10-19T01:22:44;14.98;;;9.57;;
17696;SDS011;8967;47.984;7.842;2023-10-19T01:25:16;10.70;;;7.93;;
17696;SDS011;8967;47.984;7.842;2023-10-19T01:27:46;14.60;;;9.27;;
17696;SDS011;8967;47.984;7.842;2023-10-19T01:30:14;11.27;;;8.20;;
17696;SDS011;8967;47.984;7.842;2023-10-19T01:32:43;10.90;;;8.32;;
17696;SDS011;8967;47.984;7.842;2023-10-19T01:35:10;15.38;;;9.50;;
17696;SDS011;8967;47.984;7.842;2023-10-19T01:37:40;14.57;;;9.13;;
17696;SDS011;8967;47.984;7.842;2023-10-19T01:40:08;14.25;;;8.88;;
17696;SDS011;8967;47.984;7.842;2023-10-19T01:42:40;11.98;;;8.82;;
17696;SDS011;8967;47.984;7.842;2023-10-19T01:45:07;12.73;;;8.50;;
17696;SDS011;8967;47.984;7.842;2023-10-19T01:47:36;11.75;;;9.07;;
17696;SDS011;8967;47.984;7.842;2023-10-19T01:50:03;11.80;;;8.23;;
17696;SDS011;8967;47.984;7.842;2023-10-19T01:52:31;12.05;;;9.32;;
17696;SDS011;8967;47.984;7.842;2023-10-19T01:54:57;9.90;;;7.80;;
17696;SDS011;8967;47.984;7.842;2023-10-19T01:57:34;12.82;;;8.68;;
17696;SDS011;8967;47.984;7.842;2023-10-19T02:00:00;8.68;;;6.40;;
17696;SDS011;8967;47.984;7.842;2023-10-19T02:02:37;7.65;;;5.75;;
17696;SDS011;8967;47.984;7.842;2023-10-19T02:05:03;9.70;;;6.10;;
17696;SDS011;8967;47.984;7.842;2023-10-19T02:07:35;7.95;;;6.03;;
17696;SDS011;8967;47.984;7.842;2023-10-19T02:10:03;9.93;;;6.53;;
17696;SDS011;8967;47.984;7.842;2023-10-19T02:12:37;8.25;;;6.60;;
17696;SDS011;8967;47.984;7.842;2023-10-19T02:15:07;9.48;;;7.07;;
17696;SDS011;8967;47.984;7.842;2023-10-19T02:17:34;7.40;;;5.75;;
17696;SDS011;8967;47.984;7.842;2023-10-19T02:20:05;8.40;;;5.75;;
17696;SDS011;8967;47.984;7.842;2023-10-19T02:22:49;6.45;;;5.50;;
17696;SDS011;8967;47.984;7.842;2023-10-19T02:25:19;9.60;;;5.88;;
17696;SDS011;8967;47.984;7.842;2023-10-19T02:27:48;7.82;;;5.25;;
17696;SDS011;8967;47.984;7.842;2023-10-19T02:30:14;8.15;;;5.10;;
17696;SDS011;8967;47.984;7.842;2023-10-19T02:32:44;10.23;;;6.03;;
17696;SDS011;8967;47.984;7.842;2023-10-19T02:35:13;7.03;;;5.28;;
17696;SDS011;8967;47.984;7.842;2023-10-19T02:37:40;6.38;;;5.47;;
17696;SDS011;8967;47.984;7.842;2023-10-19T02:40:10;6.57;;;5.72;;
17696;SDS011;8967;47.984;7.842;2023-10-19T02:42:45;7.82;;;6.43;;
17696;SDS011;8967;47.984;7.842;2023-10-19T02:45:15;9.32;;;6.07;;
17696;SDS011;8967;47.984;7.842;2023-10-19T02:47:43;9.07;;;6.63;;
17696;SDS011;8967;47.984;7.842;2023-10-19T02:50:12;7.68;;;5.78;;
17696;SDS011;8967;47.984;7.842;2023-10-19T02:52:41;8.45;;;6.15;;
17696;SDS011;8967;47.984;7.842;2023-10-19T02:55:09;5.95;;;5.20;;
17696;SDS011;8967;47.984;7.842;2023-10-19T02:57:35;8.27;;;5.43;;
17696;SDS011;8967;47.984;7.842;2023-10-19T03:00:04;8.48;;;5.90;;
17696;SDS011;8967;47.984;7.842;2023-10-19T03:02:38;9.15;;;5.57;;
17696;SDS011;8967;47.984;7.842;2023-10-19T03:05:05;6.75;;;5.10;;
17696;SDS011;8967;47.984;7.842;2023-10-19T03:07:39;7.35;;;5.85;;
17696;SDS011;8967;47.984;7.842;2023-10-19T03:10:09;8.52;;;5.63;;
17696;SDS011;8967;47.984;7.842;2023-10-19T03:12:48;7.40;;;6.03;;
17696;SDS011;8967;47.984;7.842;2023-10-19T03:15:18;8.90;;;5.43;;
17696;SDS011;8967;47.984;7.842;2023-10-19T03:17:47;5.82;;;5.13;;
17696;SDS011;8967;47.984;7.842;2023-10-19T03:20:14;8.18;;;5.65;;
17696;SDS011;8967;47.984;7.842;2023-10-19T03:22:42;7.53;;;5.28;;
17696;SDS011;8967;47.984;7.842;2023-10-19T03:25:11;6.88;;;4.82;;
17696;SDS011;8967;47.984;7.842;2023-10-19T03:27:56;7.78;;;5.25;;
17696;SDS011;8967;47.984;7.842;2023-10-19T03:30:26;9.10;;;5.00;;
17696;SDS011;8967;47.984;7.842;2023-10-19T03:32:55;11.35;;;6.10;;
17696;SDS011;8967;47.984;7.842;2023-10-19T03:35:27;8.40;;;5.28;;
17696;SDS011;8967;47.984;7.842;2023-10-19T03:37:56;8.88;;;5.50;;
17696;SDS011;8967;47.984;7.842;2023-10-19T03:40:26;6.90;;;5.25;;
17696;SDS011;8967;47.984;7.842;2023-10-19T03:42:58;9.63;;;5.43;;
17696;SDS011;8967;47.984;7.842;2023-10-19T03:45:30;7.88;;;5.22;;
17696;SDS011;8967;47.984;7.842;2023-10-19T03:48:05;7.13;;;5.07;;
17696;SDS011;8967;47.984;7.842;2023-10-19T03:50:37;8.35;;;4.55;;
17696;SDS011;8967;47.984;7.842;2023-10-19T03:53:07;6.60;;;4.85;;
17696;SDS011;8967;47.984;7.842;2023-10-19T03:55:37;6.82;;;3.92;;
17696;SDS011;8967;47.984;7.842;2023-10-19T03:58:04;6.20;;;4.07;;
17696;SDS011;8967;47.984;7.842;2023-10-19T04:00:34;6.32;;;4.07;;
17696;SDS011;8967;47.984;7.842;2023-10-19T04:03:01;7.00;;;4.07;;
17696;SDS011;8967;47.984;7.842;2023-10-19T04:05:30;6.47;;;4.35;;
17696;SDS011;8967;47.984;7.842;2023-10-19T04:08:00;5.45;;;4.05;;
17696;SDS011;8967;47.984;7.842;2023-10-19T04:10:38;4.57;;;3.78;;
17696;SDS011;8967;47.984;7.842;2023-10-19T04:13:10;6.50;;;3.60;;
17696;SDS011;8967;47.984;7.842;2023-10-19T04:15:37;3.58;;;3.05;;
17696;SDS011;8967;47.984;7.842;2023-10-19T04:18:06;5.93;;;3.65;;
17696;SDS011;8967;47.984;7.842;2023-10-19T04:20:38;7.70;;;3.33;;
17696;SDS011;8967;47.984;7.842;2023-10-19T04:23:23;4.53;;;3.30;;
17696;SDS011;8967;47.984;7.842;2023-10-19T04:25:56;4.68;;;3.70;;
17696;SDS011;8967;47.984;7.842;2023-10-19T04:28:26;5.15;;;3.30;;
17696;SDS011;8967;47.984;7.842;2023-10-19T04:31:03;3.53;;;3.08;;
17696;SDS011;8967;47.984;7.842;2023-10-19T04:33:31;3.00;;;2.60;;
17696;SDS011;8967;47.984;7.842;2023-10-19T04:36:01;4.45;;;3.53;;
17696;SDS011;8967;47.984;7.842;2023-10-19T04:38:31;2.95;;;2.50;;
17696;SDS011;8967;47.984;7.842;2023-10-19T04:41:03;2.85;;;2.33;;
17696;SDS011;8967;47.984;7.842;2023-10-19T04:43:36;2.72;;;1.65;;
17696;SDS011;8967;47.984;7.842;2023-10-19T04:46:05;4.57;;;1.92;;
17696;SDS011;8967;47.984;7.842;2023-10-19T04:48:37;2.85;;;1.90;;
17696;SDS011;8967;47.984;7.842;2023-10-19T04:51:08;4.63;;;2.03;;
17696;SDS011;8967;47.984;7.842;2023-10-19T04:53:36;2.30;;;2.08;;
17696;SDS011;8967;47.984;7.842;2023-10-19T04:56:04;2.28;;;1.45;;
17696;SDS011;8967;47.984;7.842;2023-10-19T04:58:34;5.05;;;1.75;;
17696;SDS011;8967;47.984;7.842;2023-10-19T05:01:02;3.75;;;1.80;;
17696;SDS011;8967;47.984;7.842;2023-10-19T05:03:29;3.58;;;1.45;;
17696;SDS011;8967;47.984;7.842;2023-10-19T05:05:56;2.00;;;1.55;;
17696;SDS011;8967;47.984;7.842;2023-10-19T05:08:25;5.45;;;1.98;;
17696;SDS011;8967;47.984;7.842;2023-10-19T05:10:53;2.17;;;1.52;;
17696;SDS011;8967;47.984;7.842;2023-10-19T05:13:24;2.55;;;1.52;;
17696;SDS011;8967;47.984;7.842;2023-10-19T05:15:54;6.50;;;2.20;;
17696;SDS011;8967;47.984;7.842;2023-10-19T05:18:21;3.13;;;1.85;;
17696;SDS011;8967;47.984;7.842;2023-10-19T05:20:49;2.22;;;1.95;;
17696;SDS011;8967;47.984;7.842;2023-10-19T05:23:21;4.15;;;1.98;;
17696;SDS011;8967;47.984;7.842;2023-10-19T05:25:50;6.97;;;1.90;;
17696;SDS011;8967;47.984;7.842;2023-10-19T05:28:44;3.13;;;1.60;;
17696;SDS011;8967;47.984;7.842;2023-10-19T05:31:17;2.08;;;1.83;;
17696;SDS011;8967;47.984;7.842;2023-10-19T05:33:44;3.47;;;1.80;;
17696;SDS011;8967;47.984;7.842;2023-10-19T05:36:14;2.45;;;1.90;;
17696;SDS011;8967;47.984;7.842;2023-10-19T05:38:42;4.93;;;1.90;;
17696;SDS011;8967;47.984;7.842;2023-10-19T05:41:11;2.75;;;1.50;;
17696;SDS011;8967;47.984;7.842;2023-10-19T05:43:38;3.75;;;2.00;;
17696;SDS011;8967;47.984;7.842;2023-10-19T05:46:05;2.90;;;1.63;;
17696;SDS011;8967;47.984;7.842;2023-10-19T05:48:32;1.90;;;1.55;;
17696;SDS011;8967;47.984;7.842;2023-10-19T05:50:59;2.28;;;1.98;;
17696;SDS011;8967;47.984;7.842;2023-10-19T05:53:28;2.88;;;1.88;;
17696;SDS011;8967;47.984;7.842;2023-10-19T05:55:55;4.50;;;2.10;;
17696;SDS011;8967;47.984;7.842;2023-10-19T05:58:24;2.13;;;1.73;;
17696;SDS011;8967;47.984;7.842;2023-10-19T06:00:51;3.35;;;1.70;;
17696;SDS011;8967;47.984;7.842;2023-10-19T06:03:18;2.55;;;1.95;;
17696;SDS011;8967;47.984;7.842;2023-10-19T06:05:50;3.33;;;2.00;;
17696;SDS011;8967;47.984;7.842;2023-10-19T06:08:23;6.18;;;1.58;;
17696;SDS011;8967;47.984;7.842;2023-10-19T06:10:50;1.67;;;1.58;;
17696;SDS011;8967;47.984;7.842;2023-10-19T06:13:20;3.45;;;1.63;;
17696;SDS011;8967;47.984;7.842;2023-10-19T06:15:49;3.20;;;1.40;;
17696;SDS011;8967;47.984;7.842;2023-10-19T06:18:16;1.65;;;1.55;;
17696;SDS011;8967;47.984;7.842;2023-10-19T06:20:46;2.75;;;2.17;;
17696;SDS011;8967;47.984;7.842;2023-10-19T06:23:16;2.70;;;1.40;;
17696;SDS011;8967;47.984;7.842;2023-10-19T06:25:44;3.15;;;2.08;;
17696;SDS011;8967;47.984;7.842;2023-10-19T06:28:12;2.05;;;1.55;;
17696;SDS011;8967;47.984;7.842;2023-10-19T06:30:47;2.05;;;1.80;;
17696;SDS011;8967;47.984;7.842;2023-10-19T06:33:16;2.60;;;1.75;;
17696;SDS011;8967;47.984;7.842;2023-10-19T06:35:43;4.43;;;3.00;;
17696;SDS011;8967;47.984;7.842;2023-10-19T06:38:10;3.10;;;1.52;;
17696;SDS011;8967;47.984;7.842;2023-10-19T06:40:37;3.25;;;2.50;;
17696;SDS011;8967;47.984;7.842;2023-10-19T06:43:04;3.75;;;2.28;;
17696;SDS011;8967;47.984;7.842;2023-10-19T06:45:32;2.72;;;2.38;;
17696;SDS011;8967;47.984;7.842;2023-10-19T06:48:00;5.90;;;2.70;;
17696;SDS011;8967;47.984;7.842;2023-10-19T06:51:31;6.60;;;2.38;;
17696;SDS011;8967;47.984;7.842;2023-10-19T06:53:59;3.42;;;2.58;;
17696;SDS011;8967;47.984;7.842;2023-10-19T06:59:26;2.83;;;1.98;;
17696;SDS011;8967;47.984;7.842;2023-10-19T07:01:54;4.85;;;2.15;;
17696;SDS011;8967;47.984;7.842;2023-10-19T07:04:23;2.30;;;1.90;;
17696;SDS011;8967;47.984;7.842;2023-10-19T07:06:50;3.25;;;2.00;;
17696;SDS011;8967;47.984;7.842;2023-10-19T07:09:22;3.95;;;1.67;;
17696;SDS011;8967;47.984;7.842;2023-10-19T07:11:51;2.53;;;1.80;;
17696;SDS011;8967;47.984;7.842;2023-10-19T07:17:14;3.45;;;2.40;;
17696;SDS011;8967;47.984;7.842;2023-10-19T07:19:43;3.17;;;2.83;;
17696;SDS011;8967;47.984;7.842;2023-10-19T07:22:16;4.00;;;3.40;;
17696;SDS011;8967;47.984;7.842;2023-10-19T07:24:47;9.75;;;5.63;;
17696;SDS011;8967;47.984;7.842;2023-10-19T07:27:14;7.53;;;4.82;;
17696;SDS011;8967;47.984;7.842;2023-10-19T07:29:43;7.57;;;5.35;;
17696;SDS011;8967;47.984;7.842;2023-10-19T07:32:10;8.38;;;5.50;;
17696;SDS011;8967;47.984;7.842;2023-10-19T07:34:42;6.32;;;5.30;;
17696;SDS011;8967;47.984;7.842;2023-10-19T07:37:12;8.25;;;5.18;;
17696;SDS011;8967;47.984;7.842;2023-10-19T07:39:44;6.22;;;4.45;;
17696;SDS011;8967;47.984;7.842;2023-10-19T07:42:14;8.55;;;5.70;;
17696;SDS011;8967;47.984;7.842;2023-10-19T07:44:42;6.57;;;4.57;;
17696;SDS011;8967;47.984;7.842;2023-10-19T07:47:12;7.55;;;4.68;;
17696;SDS011;8967;47.984;7.842;2023-10-19T07:49:43;6.95;;;3.83;;
17696;SDS011;8967;47.984;7.842;2023-10-19T07:52:13;4.63;;;3.67;;
17696;SDS011;8967;47.984;7.842;2023-10-19T07:54:40;6.00;;;3.15;;
17696;SDS011;8967;47.984;7.842;2023-10-19T07:57:10;3.67;;;2.85;;
17696;SDS011;8967;47.984;7.842;2023-10-19T07:59:38;2.65;;;2.20;;
17696;SDS011;8967;47.984;7.842;2023-10-19T08:02:05;3.13;;;2.70;;
17696;SDS011;8967;47.984;7.842;2023-10-19T08:04:33;3.47;;;2.72;;
17696;SDS011;8967;47.984;7.842;2023-10-19T08:07:05;7.85;;;2.28;;
17696;SDS011;8967;47.984;7.842;2023-10-19T08:09:34;2.25;;;2.05;;
17696;SDS011;8967;47.984;7.842;2023-10-19T08:12:02;3.97;;;2.35;;
17696;SDS011;8967;47.984;7.842;2023-10-19T08:14:31;3.30;;;2.50;;
17696;SDS011;8967;47.984;7.842;2023-10-19T08:16:58;3.78;;;2.33;;
17696;SDS011;8967;47.984;7.842;2023-10-19T08:19:27;4.65;;;2.65;;
17696;SDS011;8967;47.984;7.842;2023-10-19T08:21:56;4.63;;;2.80;;
17696;SDS011;8967;47.984;7.842;2023-10-19T08:24:25;6.22;;;2.78;;
17696;SDS011;8967;47.984;7.842;2023-10-19T08:26:55;2.58;;;2.38;;
17696;SDS011;8967;47.984;7.842;2023-10-19T08:29:24;7.97;;;3.58;;
17696;SDS011;8967;47.984;7.842;2023-10-19T08:31:51;8.02;;;3.38;;
17696;SDS011;8967;47.984;7.842;2023-10-19T08:34:18;5.60;;;2.35;;
17696;SDS011;8967;47.984;7.842;2023-10-19T08:36:46;3.80;;;2.42;;
17696;SDS011;8967;47.984;7.842;2023-10-19T08:39:14;4.13;;;2.50;;
17696;SDS011;8967;47.984;7.842;2023-10-19T08:41:44;5.18;;;2.70;;
17696;SDS011;8967;47.984;7.842;2023-10-19T08:44:15;3.50;;;2.13;;
17696;SDS011;8967;47.984;7.842;2023-10-19T08:46:45;3.22;;;2.00;;
17696;SDS011;8967;47.984;7.842;2023-10-19T08:49:13;2.75;;;1.98;;
17696;SDS011;8967;47.984;7.842;2023-10-19T08:51:43;5.00;;;1.90;;
17696;SDS011;8967;47.984;7.842;2023-10-19T08:54:11;3.75;;;2.42;;
17696;SDS011;8967;47.984;7.842;2023-10-19T08:56:39;5.70;;;3.55;;
17696;SDS011;8967;47.984;7.842;2023-10-19T08:59:11;3.55;;;2.33;;
17696;SDS011;8967;47.984;7.842;2023-10-19T09:01:38;2.75;;;2.20;;
17696;SDS011;8967;47.984;7.842;2023-10-19T09:04:05;3.47;;;2.03;;
17696;SDS011;8967;47.984;7.842;2023-10-19T09:06:34;7.13;;;2.55;;
17696;SDS011;8967;47.984;7.842;2023-10-19T09:09:07;6.50;;;2.47;;
17696;SDS011;8967;47.984;7.842;2023-10-19T09:11:39;3.15;;;2.08;;
17696;SDS011;8967;47.984;7.842;2023-10-19T09:14:07;4.30;;;1.58;;
17696;SDS011;8967;47.984;7.842;2023-10-19T09:16:35;5.60;;;2.50;;
17696;SDS011;8967;47.984;7.842;2023-10-19T09:19:03;3.58;;;2.08;;
17696;SDS011;8967;47.984;7.842;2023-10-19T09:21:31;2.60;;;2.40;;
17696;SDS011;8967;47.984;7.842;2023-10-19T09:23:58;3.15;;;2.20;;
17696;SDS011;8967;47.984;7.842;2023-10-19T09:26:27;2.90;;;1.95;;
17696;SDS011;8967;47.984;7.842;2023-10-19T09:28:54;2.20;;;1.83;;
17696;SDS011;8967;47.984;7.842;2023-10-19T09:31:21;4.53;;;2.53;;
17696;SDS011;8967;47.984;7.842;2023-10-19T09:33:51;2.42;;;1.88;;
17696;SDS011;8967;47.984;7.842;2023-10-19T09:36:20;6.22;;;3.17;;
17696;SDS011;8967;47.984;7.842;2023-10-19T09:38:52;3.72;;;2.30;;
17696;SDS011;8967;47.984;7.842;2023-10-19T09:41:23;3.85;;;1.83;;
17696;SDS011;8967;47.984;7.842;2023-10-19T09:43:53;4.03;;;2.28;;
17696;SDS011;8967;47.984;7.842;2023-10-19T09:46:31;4.45;;;2.03;;
17696;SDS011;8967;47.984;7.842;2023-10-19T09:49:03;2.30;;;1.90;;
17696;SDS011;8967;47.984;7.842;2023-10-19T09:51:32;6.88;;;1.85;;
17696;SDS011;8967;47.984;7.842;2023-10-19T09:54:00;1.85;;;1.55;;
17696;SDS011;8967;47.984;7.842;2023-10-19T09:56:35;2.28;;;1.90;;
17696;SDS011;8967;47.984;7.842;2023-10-19T09:59:05;2.03;;;1.70;;
17696;SDS011;8967;47.984;7.842;2023-10-19T10:04:35;2.33;;;1.95;;
17696;SDS011;8967;47.984;7.842;2023-10-19T10:07:03;1.25;;;1.13;;
17696;SDS011;8967;47.984;7.842;2023-10-19T10:09:32;1.38;;;1.20;;
17696;SDS011;8967;47.984;7.842;2023-10-19T10:12:20;1.63;;;1.52;;
17696;SDS011;8967;47.984;7.842;2023-10-19T10:14:55;2.25;;;1.50;;
17696;SDS011;8967;47.984;7.842;2023-10-19T10:17:24;1.80;;;1.70;;
17696;SDS011;8967;47.984;7.842;2023-10-19T10:19:55;3.42;;;2.03;;
17696;SDS011;8967;47.984;7.842;2023-10-19T10:22:25;1.67;;;1.58;;
17696;SDS011;8967;47.984;7.842;2023-10-19T10:24:54;2.72;;;1.45;;
17696;SDS011;8967;47.984;7.842;2023-10-19T10:27:22;1.20;;;1.20;;
17696;SDS011;8967;47.984;7.842;2023-10-19T10:29:56;4.80;;;3.75;;
17696;SDS011;8967;47.984;7.842;2023-10-19T10:32:42;2.38;;;1.70;;
17696;SDS011;8967;47.984;7.842;2023-10-19T10:38:13;1.83;;;1.33;;
17696;SDS011;8967;47.984;7.842;2023-10-19T10:40:44;1.83;;;1.30;;
17696;SDS011;8967;47.984;7.842;2023-10-19T10:43:13;2.85;;;1.85;;
17696;SDS011;8967;47.984;7.842;2023-10-19T10:45:43;1.35;;;1.05;;
17696;SDS011;8967;47.984;7.842;2023-10-19T10:48:11;1.35;;;1.25;;
17696;SDS011;8967;47.984;7.842;2023-10-19T10:50:39;0.93;;;0.88;;
17696;SDS011;8967;47.984;7.842;2023-10-19T10:53:06;1.90;;;1.35;;
17696;SDS011;8967;47.984;7.842;2023-10-19T10:55:35;2.25;;;1.10;;
17696;SDS011;8967;47.984;7.842;2023-10-19T10:58:02;1.77;;;1.08;;
17696;SDS011;8967;47.984;7.842;2023-10-19T11:00:30;1.50;;;1.10;;
17696;SDS011;8967;47.984;7.842;2023-10-19T11:03:05;2.72;;;1.70;;
17696;SDS011;8967;47.984;7.842;2023-10-19T11:05:34;2.15;;;1.23;;
17696;SDS011;8967;47.984;7.842;2023-10-19T11:08:07;3.47;;;2.25;;
17696;SDS011;8967;47.984;7.842;2023-10-19T11:10:42;1.52;;;1.42;;
17696;SDS011;8967;47.984;7.842;2023-10-19T11:13:14;2.30;;;1.60;;
17696;SDS011;8967;47.984;7.842;2023-10-19T11:15:47;1.30;;;1.20;;
17696;SDS011;8967;47.984;7.842;2023-10-19T11:18:27;1.40;;;1.30;;
17696;SDS011;8967;47.984;7.842;2023-10-19T11:20:55;5.97;;;1.55;;
17696;SDS011;8967;47.984;7.842;2023-10-19T11:23:34;2.38;;;0.93;;
17696;SDS011;8967;47.984;7.842;2023-10-19T11:26:04;2.00;;;1.30;;
17696;SDS011;8967;47.984;7.842;2023-10-19T11:28:31;1.33;;;1.20;;
17696;SDS011;8967;47.984;7.842;2023-10-19T11:31:12;1.23;;;1.10;;
17696;SDS011;8967;47.984;7.842;2023-10-19T11:33:40;1.95;;;1.40;;
17696;SDS011;8967;47.984;7.842;2023-10-19T11:36:08;2.47;;;1.60;;
17696;SDS011;8967;47.984;7.842;2023-10-19T11:38:38;1.58;;;1.30;;
17696;SDS011;8967;47.984;7.842;2023-10-19T11:41:08;1.20;;;1.10;;
17696;SDS011;8967;47.984;7.842;2023-10-19T11:43:35;1.92;;;1.73;;
17696;SDS011;8967;47.984;7.842;2023-10-19T11:46:02;1.48;;;1.25;;
17696;SDS011;8967;47.984;7.842;2023-10-19T11:48:31;4.20;;;2.40;;
17696;SDS011;8967;47.984;7.842;2023-10-19T12:02:37;2.08;;;1.83;;
17696;SDS011;8967;47.984;7.842;2023-10-19T12:05:22;4.47;;;3.33;;
17696;SDS011;8967;47.984;7.842;2023-10-19T12:11:10;3.22;;;2.25;;
17696;SDS011;8967;47.984;7.842;2023-10-19T12:17:12;1.45;;;1.20;;
17696;SDS011;8967;47.984;7.842;2023-10-19T12:31:21;4.15;;;3.13;;
17696;SDS011;8967;47.984;7.842;2023-10-19T12:41:16;1.27;;;1.13;;
17696;SDS011;8967;47.984;7.842;2023-10-19T12:43:44;0.73;;;0.73;;
17696;SDS011;8967;47.984;7.842;2023-10-19T12:46:14;1.08;;;0.82;;
17696;SDS011;8967;47.984;7.842;2023-10-19T12:48:43;1.15;;;0.60;;
17696;SDS011;8967;47.984;7.842;2023-10-19T12:54:40;0.80;;;0.60;;
17696;SDS011;8967;47.984;7.842;2023-10-19T12:57:10;0.80;;;0.80;;
17696;SDS011;8967;47.984;7.842;2023-10-19T13:03:07;0.80;;;0.80;;
17696;SDS011;8967;47.984;7.842;2023-10-19T13:05:38;0.85;;;0.85;;
17696;SDS011;8967;47.984;7.842;2023-10-19T13:08:05;0.63;;;0.63;;
17696;SDS011;8967;47.984;7.842;2023-10-19T13:24:15;1.20;;;1.00;;
17696;SDS011;8967;47.984;7.842;2023-10-19T13:26:44;1.25;;;0.82;;
17696;SDS011;8967;47.984;7.842;2023-10-19T13:29:16;2.75;;;0.85;;
17696;SDS011;8967;47.984;7.842;2023-10-19T13:31:45;0.98;;;0.80;;
17696;SDS011;8967;47.984;7.842;2023-10-19T13:34:15;2.75;;;1.17;;
17696;SDS011;8967;47.984;7.842;2023-10-19T13:36:45;1.08;;;1.00;;
17696;SDS011;8967;47.984;7.842;2023-10-19T13:39:12;1.17;;;0.90;;
17696;SDS011;8967;47.984;7.842;2023-10-19T13:41:43;0.90;;;0.90;;
17696;SDS011;8967;47.984;7.842;2023-10-19T13:44:10;1.20;;;1.00;;
17696;SDS011;8967;47.984;7.842;2023-10-19T13:46:38;1.15;;;0.82;;
17696;SDS011;8967;47.984;7.842;2023-10-19T13:49:05;0.80;;;0.70;;
17696;SDS011;8967;47.984;7.842;2023-10-19T13:51:35;1.42;;;0.70;;
17696;SDS011;8967;47.984;7.842;2023-10-19T13:54:04;2.45;;;1.20;;
17696;SDS011;8967;47.984;7.842;2023-10-19T13:56:31;1.95;;;0.88;;
17696;SDS011;8967;47.984;7.842;2023-10-19T13:59:00;0.85;;;0.85;;
17696;SDS011;8967;47.984;7.842;2023-10-19T14:01:27;2.85;;;1.27;;
17696;SDS011;8967;47.984;7.842;2023-10-19T14:03:59;1.10;;;1.00;;
17696;SDS011;8967;47.984;7.842;2023-10-19T14:06:26;1.30;;;1.20;;
17696;SDS011;8967;47.984;7.842;2023-10-19T14:08:54;1.95;;;1.27;;
17696;SDS011;8967;47.984;7.842;2023-10-19T14:11:23;1.30;;;1.17;;
17696;SDS011;8967;47.984;7.842;2023-10-19T14:13:52;1.70;;;1.60;;
17696;SDS011;8967;47.984;7.842;2023-10-19T14:16:21;1.45;;;1.23;;
17696;SDS011;8967;47.984;7.842;2023-10-19T14:18:51;1.48;;;1.20;;
17696;SDS011;8967;47.984;7.842;2023-10-19T14:21:18;1.10;;;1.02;;
17696;SDS011;8967;47.984;7.842;2023-10-19T14:23:45;1.77;;;1.08;;
17696;SDS011;8967;47.984;7.842;2023-10-19T14:26:13;1.60;;;1.10;;
17696;SDS011;8967;47.984;7.842;2023-10-19T14:28:40;1.45;;;1.10;;
17696;SDS011;8967;47.984;7.842;2023-10-19T14:31:07;1.48;;;1.13;;
17696;SDS011;8967;47.984;7.842;2023-10-19T14:33:37;1.40;;;1.00;;
17696;SDS011;8967;47.984;7.842;2023-10-19T14:36:05;10.10;;;8.38;;
17696;SDS011;8967;47.984;7.842;2023-10-19T14:38:35;8.98;;;7.32;;
17696;SDS011;8967;47.984;7.842;2023-10-19T14:41:04;8.55;;;6.13;;
17696;SDS011;8967;47.984;7.842;2023-10-19T14:43:31;4.07;;;3.45;;
17696;SDS011;8967;47.984;7.842;2023-10-19T14:45:58;3.97;;;2.60;;
17696;SDS011;8967;47.984;7.842;2023-10-19T14:48:26;4.30;;;1.63;;
17696;SDS011;8967;47.984;7.842;2023-10-19T14:50:57;2.30;;;1.52;;
17696;SDS011;8967;47.984;7.842;2023-10-19T14:53:24;1.60;;;1.42;;
17696;SDS011;8967;47.984;7.842;2023-10-19T14:55:51;1.42;;;1.35;;
17696;SDS011;8967;47.984;7.842;2023-10-19T14:58:18;1.52;;;1.30;;
17696;SDS011;8967;47.984;7.842;2023-10-19T15:00:45;1.95;;;1.35;;
17696;SDS011;8967;47.984;7.842;2023-10-19T15:03:22;1.67;;;1.33;;
17696;SDS011;8967;47.984;7.842;2023-10-19T15:05:50;1.65;;;1.55;;
17696;SDS011;8967;47.984;7.842;2023-10-19T15:08:19;2.00;;;1.70;;
17696;SDS011;8967;47.984;7.842;2023-10-19T15:10:49;3.00;;;1.90;;
17696;SDS011;8967;47.984;7.842;2023-10-19T15:13:16;2.45;;;1.60;;
17696;SDS011;8967;47.984;7.842;2023-10-19T15:15:43;2.25;;;1.60;;
17696;SDS011;8967;47.984;7.842;2023-10-19T15:18:13;7.70;;;1.70;;
17696;SDS011;8967;47.984;7.842;2023-10-19T15:20:40;1.80;;;1.65;;
17696;SDS011;8967;47.984;7.842;2023-10-19T15:23:07;1.75;;;1.50;;
17696;SDS011;8967;47.984;7.842;2023-10-19T15:25:37;4.75;;;1.58;;
17696;SDS011;8967;47.984;7.842;2023-10-19T15:28:10;1.60;;;1.45;;
17696;SDS011;8967;47.984;7.842;2023-10-19T15:30:37;5.55;;;4.15;;
17696;SDS011;8967;47.984;7.842;2023-10-19T15:33:05;8.20;;;7.07;;
17696;SDS011;8967;47.984;7.842;2023-10-19T15:35:32;5.15;;;3.33;;
17696;SDS011;8967;47.984;7.842;2023-10-19T15:38:01;2.22;;;1.67;;
17696;SDS011;8967;47.984;7.842;2023-10-19T15:40:29;2.17;;;1.58;;
17696;SDS011;8967;47.984;7.842;2023-10-19T15:43:00;2.67;;;1.67;;
17696;SDS011;8967;47.984;7.842;2023-10-19T15:45:28;4.22;;;1.50;;
17696;SDS011;8967;47.984;7.842;2023-10-19T15:48:00;2.38;;;1.58;;
17696;SDS011;8967;47.984;7.842;2023-10-19T15:50:29;2.80;;;1.65;;
17696;SDS011;8967;47.984;7.842;2023-10-19T15:52:57;2.08;;;1.63;;
17696;SDS011;8967;47.984;7.842;2023-10-19T15:55:24;1.73;;;1.25;;
17696;SDS011;8967;47.984;7.842;2023-10-19T15:57:52;3.22;;;1.60;;
17696;SDS011;8967;47.984;7.842;2023-10-19T16:00:25;2.15;;;1.80;;
17696;SDS011;8967;47.984;7.842;2023-10-19T16:02:55;4.85;;;2.58;;
17696;SDS011;8967;47.984;7.842;2023-10-19T16:05:25;4.60;;;2.20;;
17696;SDS011;8967;47.984;7.842;2023-10-19T16:07:53;2.75;;;2.33;;
17696;SDS011;8967;47.984;7.842;2023-10-19T16:10:22;6.03;;;2.15;;
17696;SDS011;8967;47.984;7.842;2023-10-19T16:12:51;2.60;;;2.08;;
17696;SDS011;8967;47.984;7.842;2023-10-19T16:15:18;2.53;;;2.33;;
17696;SDS011;8967;47.984;7.842;2023-10-19T16:17:49;2.83;;;2.15;;
17696;SDS011;8967;47.984;7.842;2023-10-19T16:20:16;3.08;;;2.20;;
17696;SDS011;8967;47.984;7.842;2023-10-19T16:22:48;4.57;;;2.22;;
17696;SDS011;8967;47.984;7.842;2023-10-19T16:25:19;3.92;;;2.08;;
17696;SDS011;8967;47.984;7.842;2023-10-19T16:27:47;4.88;;;2.22;;